sensor_id;sensor_type;location;lat;lon;timestamp;temperature;humidity
41628;DHT22;27321;50.816;6.054;2022-12-18T00:01:22;-3275.20;62.40
41628;DHT22;27321;50.816;6.054;2022-12-18T00:04:26;-3275.20;62.10
41628;DHT22;27321;50.816;6.054;2022-12-18T00:07:27;-3275.10;61.90
41628;DHT22;27321;50.816;6.054;2022-12-18T00:10:29;-3275.10;62.70
41628;DHT22;27321;50.816;6.054;2022-12-18T00:13:29;-3275.00;62.20
41628;DHT22;27321;50.816;6.054;2022-12-18T00:16:31;-3275.00;62.40
41628;DHT22;27321;50.816;6.054;2022-12-18T00:19:33;-3275.00;62.60
41628;DHT22;27321;50.816;6.054;2022-12-18T00:22:34;-3274.90;62.80
41628;DHT22;27321;50.816;6.054;2022-12-18T00:25:36;-3274.90;62.60
41628;DHT22;27321;50.816;6.054;2022-12-18T00:28:37;-3274.90;62.80
41628;DHT22;27321;50.816;6.054;2022-12-18T00:31:38;-3274.90;63.00
41628;DHT22;27321;50.816;6.054;2022-12-18T00:34:39;-3274.90;62.40
41628;DHT22;27321;50.816;6.054;2022-12-18T00:37:40;-3274.90;62.90
41628;DHT22;27321;50.816;6.054;2022-12-18T00:40:41;-3274.90;62.90
41628;DHT22;27321;50.816;6.054;2022-12-18T00:43:42;-3275.00;62.50
41628;DHT22;27321;50.816;6.054;2022-12-18T00:46:44;-3274.90;61.80
41628;DHT22;27321;50.816;6.054;2022-12-18T00:49:45;-3274.90;62.60
41628;DHT22;27321;50.816;6.054;2022-12-18T00:52:46;-3274.80;62.30
41628;DHT22;27321;50.816;6.054;2022-12-18T00:55:47;-3274.80;62.10
41628;DHT22;27321;50.816;6.054;2022-12-18T00:58:49;-3274.80;62.30
41628;DHT22;27321;50.816;6.054;2022-12-18T01:01:50;-3274.80;61.90
41628;DHT22;27321;50.816;6.054;2022-12-18T01:04:51;-3274.70;62.50
41628;DHT22;27321;50.816;6.054;2022-12-18T01:07:55;-3274.60;62.00
41628;DHT22;27321;50.816;6.054;2022-12-18T01:10:56;-3274.60;62.60
41628;DHT22;27321;50.816;6.054;2022-12-18T01:14:02;-3274.60;62.80
41628;DHT22;27321;50.816;6.054;2022-12-18T01:17:04;-3274.60;62.50
41628;DHT22;27321;50.816;6.054;2022-12-18T01:20:08;-3274.60;62.20
41628;DHT22;27321;50.816;6.054;2022-12-18T01:23:10;-3274.60;62.30
41628;DHT22;27321;50.816;6.054;2022-12-18T01:26:14;-3274.60;62.40
41628;DHT22;27321;50.816;6.054;2022-12-18T01:29:15;-3274.60;61.90
41628;DHT22;27321;50.816;6.054;2022-12-18T01:32:16;-3274.50;62.00
41628;DHT22;27321;50.816;6.054;2022-12-18T01:35:17;-3274.50;62.30
41628;DHT22;27321;50.816;6.054;2022-12-18T01:38:18;-3274.50;62.60
41628;DHT22;27321;50.816;6.054;2022-12-18T01:41:24;-3274.50;62.90
41628;DHT22;27321;50.816;6.054;2022-12-18T01:48:05;-3274.50;63.90
41628;DHT22;27321;50.816;6.054;2022-12-18T01:51:09;-3274.50;63.90
41628;DHT22;27321;50.816;6.054;2022-12-18T01:54:11;-3274.60;63.10
41628;DHT22;27321;50.816;6.054;2022-12-18T01:57:12;-3274.50;62.80
41628;DHT22;27321;50.816;6.054;2022-12-18T02:00:17;-3274.50;62.50
41628;DHT22;27321;50.816;6.054;2022-12-18T02:03:19;-3274.40;62.70
41628;DHT22;27321;50.816;6.054;2022-12-18T02:06:34;-3274.40;62.50
41628;DHT22;27321;50.816;6.054;2022-12-18T02:09:59;-3274.40;62.60
41628;DHT22;27321;50.816;6.054;2022-12-18T02:13:19;-3274.40;63.10
41628;DHT22;27321;50.816;6.054;2022-12-18T02:20:03;-3274.30;62.40
41628;DHT22;27321;50.816;6.054;2022-12-18T02:23:23;-3274.20;62.90
41628;DHT22;27321;50.816;6.054;2022-12-18T02:26:32;-3274.20;61.90
41628;DHT22;27321;50.816;6.054;2022-12-18T02:29:48;-3274.10;62.70
41628;DHT22;27321;50.816;6.054;2022-12-18T02:32:53;-3274.10;63.10
41628;DHT22;27321;50.816;6.054;2022-12-18T02:35:55;-3274.20;62.70
41628;DHT22;27321;50.816;6.054;2022-12-18T02:38:59;-3274.20;62.50
41628;DHT22;27321;50.816;6.054;2022-12-18T02:42:03;-3274.20;62.80
41628;DHT22;27321;50.816;6.054;2022-12-18T02:45:09;-3274.20;62.20
41628;DHT22;27321;50.816;6.054;2022-12-18T02:48:11;-3274.20;62.20
41628;DHT22;27321;50.816;6.054;2022-12-18T02:51:27;-3274.10;62.40
41628;DHT22;27321;50.816;6.054;2022-12-18T02:54:43;-3274.20;62.30
41628;DHT22;27321;50.816;6.054;2022-12-18T03:02:00;-3274.20;62.10
41628;DHT22;27321;50.816;6.054;2022-12-18T03:05:33;-3274.10;61.80
41628;DHT22;27321;50.816;6.054;2022-12-18T03:08:41;-3274.10;61.70
41628;DHT22;27321;50.816;6.054;2022-12-18T03:11:49;-3274.00;61.40
41628;DHT22;27321;50.816;6.054;2022-12-18T03:15:25;-3273.90;61.70
41628;DHT22;27321;50.816;6.054;2022-12-18T03:18:47;-3273.90;62.10
41628;DHT22;27321;50.816;6.054;2022-12-18T03:21:56;-3273.90;62.40
41628;DHT22;27321;50.816;6.054;2022-12-18T03:25:02;-3273.90;62.50
41628;DHT22;27321;50.816;6.054;2022-12-18T03:28:18;-3273.90;62.40
41628;DHT22;27321;50.816;6.054;2022-12-18T03:31:26;-3273.90;62.30
41628;DHT22;27321;50.816;6.054;2022-12-18T03:34:34;-3273.90;62.20
41628;DHT22;27321;50.816;6.054;2022-12-18T03:37:40;-3273.80;61.70
41628;DHT22;27321;50.816;6.054;2022-12-18T03:48:06;-3273.90;61.80
41628;DHT22;27321;50.816;6.054;2022-12-18T03:51:42;-3273.90;61.50
41628;DHT22;27321;50.816;6.054;2022-12-18T03:54:49;-3273.80;61.60
41628;DHT22;27321;50.816;6.054;2022-12-18T03:57:52;-3273.80;61.90
41628;DHT22;27321;50.816;6.054;2022-12-18T04:00:56;-3273.80;61.80
41628;DHT22;27321;50.816;6.054;2022-12-18T04:04:02;-3273.80;61.50
41628;DHT22;27321;50.816;6.054;2022-12-18T04:07:07;-3273.80;61.40
41628;DHT22;27321;50.816;6.054;2022-12-18T04:10:12;-3273.80;61.60
41628;DHT22;27321;50.816;6.054;2022-12-18T04:13:27;-3273.80;61.30
41628;DHT22;27321;50.816;6.054;2022-12-18T04:16:30;-3273.70;61.80
41628;DHT22;27321;50.816;6.054;2022-12-18T04:19:35;-3273.70;61.30
41628;DHT22;27321;50.816;6.054;2022-12-18T04:22:37;-3273.80;61.20
41628;DHT22;27321;50.816;6.054;2022-12-18T04:25:38;-3273.80;60.80
41628;DHT22;27321;50.816;6.054;2022-12-18T04:28:42;-3273.80;61.10
41628;DHT22;27321;50.816;6.054;2022-12-18T04:31:44;-3273.80;61.20
41628;DHT22;27321;50.816;6.054;2022-12-18T04:34:45;-3273.80;61.30
41628;DHT22;27321;50.816;6.054;2022-12-18T04:37:46;-3273.80;60.80
41628;DHT22;27321;50.816;6.054;2022-12-18T04:40:47;-3273.70;61.00
41628;DHT22;27321;50.816;6.054;2022-12-18T04:43:55;-3273.70;60.90
41628;DHT22;27321;50.816;6.054;2022-12-18T04:46:56;-3273.70;61.20
41628;DHT22;27321;50.816;6.054;2022-12-18T04:49:57;-3273.70;60.70
41628;DHT22;27321;50.816;6.054;2022-12-18T04:52:58;-3273.70;61.10
41628;DHT22;27321;50.816;6.054;2022-12-18T04:56:12;-3273.80;60.50
41628;DHT22;27321;50.816;6.054;2022-12-18T04:59:14;-3273.70;60.20
41628;DHT22;27321;50.816;6.054;2022-12-18T05:02:15;-3273.70;60.50
41628;DHT22;27321;50.816;6.054;2022-12-18T05:05:16;-3273.70;60.10
41628;DHT22;27321;50.816;6.054;2022-12-18T05:08:17;-3273.70;59.90
41628;DHT22;27321;50.816;6.054;2022-12-18T05:11:19;-3273.70;60.50
41628;DHT22;27321;50.816;6.054;2022-12-18T05:14:20;-3273.60;60.70
41628;DHT22;27321;50.816;6.054;2022-12-18T05:17:21;-3273.60;60.60
41628;DHT22;27321;50.816;6.054;2022-12-18T05:20:22;-3273.60;60.30
41628;DHT22;27321;50.816;6.054;2022-12-18T05:23:25;-3273.60;60.20
41628;DHT22;27321;50.816;6.054;2022-12-18T05:26:26;-3273.50;60.80
41628;DHT22;27321;50.816;6.054;2022-12-18T05:29:27;-3273.50;60.80
41628;DHT22;27321;50.816;6.054;2022-12-18T05:32:28;-3273.50;61.00
41628;DHT22;27321;50.816;6.054;2022-12-18T05:35:30;-3273.50;61.20
41628;DHT22;27321;50.816;6.054;2022-12-18T05:38:32;-3273.50;60.80
41628;DHT22;27321;50.816;6.054;2022-12-18T05:41:33;-3273.50;61.00
41628;DHT22;27321;50.816;6.054;2022-12-18T05:44:34;-3273.50;61.20
41628;DHT22;27321;50.816;6.054;2022-12-18T05:47:35;-3273.50;61.00
41628;DHT22;27321;50.816;6.054;2022-12-18T05:50:38;-3273.50;60.90
41628;DHT22;27321;50.816;6.054;2022-12-18T05:53:41;-3273.40;60.90
41628;DHT22;27321;50.816;6.054;2022-12-18T05:56:42;-3273.40;61.50
41628;DHT22;27321;50.816;6.054;2022-12-18T05:59:43;-3273.50;61.30
41628;DHT22;27321;50.816;6.054;2022-12-18T06:02:47;-3273.40;60.60
41628;DHT22;27321;50.816;6.054;2022-12-18T06:05:48;-3273.40;61.30
41628;DHT22;27321;50.816;6.054;2022-12-18T06:08:49;-3273.40;61.60
41628;DHT22;27321;50.816;6.054;2022-12-18T06:11:51;-3273.40;60.90
41628;DHT22;27321;50.816;6.054;2022-12-18T06:14:59;-3273.40;61.10
41628;DHT22;27321;50.816;6.054;2022-12-18T06:18:07;-3273.40;61.30
41628;DHT22;27321;50.816;6.054;2022-12-18T06:21:08;-3273.40;61.30
41628;DHT22;27321;50.816;6.054;2022-12-18T06:24:09;-3273.30;62.00
41628;DHT22;27321;50.816;6.054;2022-12-18T06:27:10;-3273.40;62.30
41628;DHT22;27321;50.816;6.054;2022-12-18T06:30:12;-3273.40;62.00
41628;DHT22;27321;50.816;6.054;2022-12-18T06:33:14;-3273.40;61.70
41628;DHT22;27321;50.816;6.054;2022-12-18T06:36:16;-3273.50;61.90
41628;DHT22;27321;50.816;6.054;2022-12-18T06:39:17;-3273.40;61.30
41628;DHT22;27321;50.816;6.054;2022-12-18T06:42:18;-3273.50;61.30
41628;DHT22;27321;50.816;6.054;2022-12-18T06:45:22;-3273.40;61.30
41628;DHT22;27321;50.816;6.054;2022-12-18T06:48:23;-3273.40;61.60
41628;DHT22;27321;50.816;6.054;2022-12-18T06:51:25;-3273.40;61.80
41628;DHT22;27321;50.816;6.054;2022-12-18T06:54:26;-3273.40;61.40
41628;DHT22;27321;50.816;6.054;2022-12-18T06:57:27;-3273.40;61.60
41628;DHT22;27321;50.816;6.054;2022-12-18T07:00:28;-3273.40;60.80
41628;DHT22;27321;50.816;6.054;2022-12-18T07:03:29;-3273.40;61.10
41628;DHT22;27321;50.816;6.054;2022-12-18T07:06:35;-3273.40;61.40
41628;DHT22;27321;50.816;6.054;2022-12-18T07:09:36;-3273.40;61.10
41628;DHT22;27321;50.816;6.054;2022-12-18T07:12:37;-3273.40;61.20
41628;DHT22;27321;50.816;6.054;2022-12-18T07:15:38;-3273.40;61.50
41628;DHT22;27321;50.816;6.054;2022-12-18T07:18:39;-3273.30;61.40
41628;DHT22;27321;50.816;6.054;2022-12-18T07:21:40;-3273.40;61.40
41628;DHT22;27321;50.816;6.054;2022-12-18T07:24:41;-3273.30;61.50
41628;DHT22;27321;50.816;6.054;2022-12-18T07:27:42;-3273.30;61.60
41628;DHT22;27321;50.816;6.054;2022-12-18T07:30:43;-3273.30;61.60
41628;DHT22;27321;50.816;6.054;2022-12-18T07:33:45;-3273.40;61.70
41628;DHT22;27321;50.816;6.054;2022-12-18T07:36:47;-3273.30;61.30
41628;DHT22;27321;50.816;6.054;2022-12-18T07:39:48;-3273.30;61.40
41628;DHT22;27321;50.816;6.054;2022-12-18T07:42:49;-3273.30;61.30
41628;DHT22;27321;50.816;6.054;2022-12-18T07:45:50;-3273.30;61.80
41628;DHT22;27321;50.816;6.054;2022-12-18T07:48:51;-3273.20;62.50
41628;DHT22;27321;50.816;6.054;2022-12-18T07:51:54;-3273.30;62.60
41628;DHT22;27321;50.816;6.054;2022-12-18T07:54:56;-3273.20;62.60
41628;DHT22;27321;50.816;6.054;2022-12-18T07:58:00;-3273.30;62.40
41628;DHT22;27321;50.816;6.054;2022-12-18T08:01:08;-3273.30;62.30
41628;DHT22;27321;50.816;6.054;2022-12-18T08:04:10;-3273.40;62.60
41628;DHT22;27321;50.816;6.054;2022-12-18T08:07:11;-3273.40;62.30
41628;DHT22;27321;50.816;6.054;2022-12-18T08:10:12;-3273.40;62.50
41628;DHT22;27321;50.816;6.054;2022-12-18T08:13:13;-3273.50;62.30
41628;DHT22;27321;50.816;6.054;2022-12-18T08:16:14;-3273.50;62.10
41628;DHT22;27321;50.816;6.054;2022-12-18T08:19:16;-3273.60;62.30
41628;DHT22;27321;50.816;6.054;2022-12-18T08:22:17;-3273.60;62.20
41628;DHT22;27321;50.816;6.054;2022-12-18T08:25:18;-3273.70;62.70
41628;DHT22;27321;50.816;6.054;2022-12-18T08:28:19;-3273.70;62.60
41628;DHT22;27321;50.816;6.054;2022-12-18T08:31:20;-3273.70;63.10
41628;DHT22;27321;50.816;6.054;2022-12-18T08:34:21;-3273.80;63.10
41628;DHT22;27321;50.816;6.054;2022-12-18T08:37:22;-3273.90;63.50
41628;DHT22;27321;50.816;6.054;2022-12-18T08:40:23;-3274.00;63.60
41628;DHT22;27321;50.816;6.054;2022-12-18T08:43:24;-3274.00;63.60
41628;DHT22;27321;50.816;6.054;2022-12-18T08:46:44;-3274.10;63.70
41628;DHT22;27321;50.816;6.054;2022-12-18T08:49:45;-3274.30;63.40
41628;DHT22;27321;50.816;6.054;2022-12-18T08:52:46;-3274.40;63.10
41628;DHT22;27321;50.816;6.054;2022-12-18T08:55:47;-3274.40;63.30
41628;DHT22;27321;50.816;6.054;2022-12-18T08:58:51;-3274.50;63.30
41628;DHT22;27321;50.816;6.054;2022-12-18T09:01:54;-3274.50;63.60
41628;DHT22;27321;50.816;6.054;2022-12-18T09:04:55;-3274.60;63.70
41628;DHT22;27321;50.816;6.054;2022-12-18T09:07:56;-3274.80;63.50
41628;DHT22;27321;50.816;6.054;2022-12-18T09:10:57;-3274.80;63.90
41628;DHT22;27321;50.816;6.054;2022-12-18T09:14:00;-3274.90;64.00
41628;DHT22;27321;50.816;6.054;2022-12-18T09:17:01;-3275.10;64.20
41628;DHT22;27321;50.816;6.054;2022-12-18T09:20:02;-3275.20;64.70
41628;DHT22;27321;50.816;6.054;2022-12-18T09:23:05;-3275.30;64.50
41628;DHT22;27321;50.816;6.054;2022-12-18T09:26:06;-3275.40;64.30
41628;DHT22;27321;50.816;6.054;2022-12-18T09:29:07;-3275.40;64.70
41628;DHT22;27321;50.816;6.054;2022-12-18T09:32:09;-3275.50;65.00
41628;DHT22;27321;50.816;6.054;2022-12-18T09:35:10;-3275.50;65.00
41628;DHT22;27321;50.816;6.054;2022-12-18T09:38:21;-3275.60;65.50
41628;DHT22;27321;50.816;6.054;2022-12-18T09:44:49;-3275.80;65.40
41628;DHT22;27321;50.816;6.054;2022-12-18T09:47:54;-3275.80;65.80
41628;DHT22;27321;50.816;6.054;2022-12-18T09:51:09;-3275.90;65.70
41628;DHT22;27321;50.816;6.054;2022-12-18T09:54:20;-3276.00;66.00
41628;DHT22;27321;50.816;6.054;2022-12-18T09:57:24;-3276.10;65.90
41628;DHT22;27321;50.816;6.054;2022-12-18T10:00:26;-3276.20;65.60
41628;DHT22;27321;50.816;6.054;2022-12-18T10:03:27;-3276.40;65.60
41628;DHT22;27321;50.816;6.054;2022-12-18T10:14:13;0.00;64.50
41628;DHT22;27321;50.816;6.054;2022-12-18T10:21:02;0.00;64.20
41628;DHT22;27321;50.816;6.054;2022-12-18T10:27:28;0.20;64.50
41628;DHT22;27321;50.816;6.054;2022-12-18T10:30:32;0.30;64.40
41628;DHT22;27321;50.816;6.054;2022-12-18T10:33:34;0.30;64.40
41628;DHT22;27321;50.816;6.054;2022-12-18T10:36:37;0.40;64.30
41628;DHT22;27321;50.816;6.054;2022-12-18T10:39:39;0.50;64.30
41628;DHT22;27321;50.816;6.054;2022-12-18T10:42:43;0.50;63.60
41628;DHT22;27321;50.816;6.054;2022-12-18T10:49:22;0.60;64.40
41628;DHT22;27321;50.816;6.054;2022-12-18T10:52:27;0.70;64.10
41628;DHT22;27321;50.816;6.054;2022-12-18T10:55:37;0.80;64.40
41628;DHT22;27321;50.816;6.054;2022-12-18T10:58:39;0.80;63.60
41628;DHT22;27321;50.816;6.054;2022-12-18T11:01:52;0.90;64.20
41628;DHT22;27321;50.816;6.054;2022-12-18T11:04:55;0.90;64.30
41628;DHT22;27321;50.816;6.054;2022-12-18T11:07:56;1.00;64.40
41628;DHT22;27321;50.816;6.054;2022-12-18T11:10:58;1.10;64.80
41628;DHT22;27321;50.816;6.054;2022-12-18T11:14:06;1.10;64.70
41628;DHT22;27321;50.816;6.054;2022-12-18T11:20:36;1.20;64.90
41628;DHT22;27321;50.816;6.054;2022-12-18T11:23:52;1.30;64.80
41628;DHT22;27321;50.816;6.054;2022-12-18T11:26:55;1.30;64.60
41628;DHT22;27321;50.816;6.054;2022-12-18T11:33:39;1.30;65.00
41628;DHT22;27321;50.816;6.054;2022-12-18T11:36:46;1.40;64.50
41628;DHT22;27321;50.816;6.054;2022-12-18T11:40:03;1.40;64.30
41628;DHT22;27321;50.816;6.054;2022-12-18T11:43:33;1.50;64.50
41628;DHT22;27321;50.816;6.054;2022-12-18T11:47:11;1.50;64.60
41628;DHT22;27321;50.816;6.054;2022-12-18T11:50:55;1.50;64.80
41628;DHT22;27321;50.816;6.054;2022-12-18T11:53:57;1.70;64.70
41628;DHT22;27321;50.816;6.054;2022-12-18T12:00:21;1.80;64.80
41628;DHT22;27321;50.816;6.054;2022-12-18T12:03:47;1.80;64.50
41628;DHT22;27321;50.816;6.054;2022-12-18T12:41:27;2.10;65.30
41628;DHT22;27321;50.816;6.054;2022-12-18T12:44:57;2.00;65.40
41628;DHT22;27321;50.816;6.054;2022-12-18T12:48:01;2.10;66.00
41628;DHT22;27321;50.816;6.054;2022-12-18T12:51:28;2.20;65.70
41628;DHT22;27321;50.816;6.054;2022-12-18T12:54:34;2.30;65.50
41628;DHT22;27321;50.816;6.054;2022-12-18T12:57:44;2.30;66.10
41628;DHT22;27321;50.816;6.054;2022-12-18T13:04:36;2.50;65.60
41628;DHT22;27321;50.816;6.054;2022-12-18T13:08:03;2.50;66.10
41628;DHT22;27321;50.816;6.054;2022-12-18T13:11:28;2.50;66.30
41628;DHT22;27321;50.816;6.054;2022-12-18T13:14:49;2.60;66.80
41628;DHT22;27321;50.816;6.054;2022-12-18T13:21:33;2.70;65.60
41628;DHT22;27321;50.816;6.054;2022-12-18T13:24:34;2.80;64.60
41628;DHT22;27321;50.816;6.054;2022-12-18T13:33:49;2.70;64.90
41628;DHT22;27321;50.816;6.054;2022-12-18T13:36:53;2.60;64.90
41628;DHT22;27321;50.816;6.054;2022-12-18T13:39:55;2.60;65.10
41628;DHT22;27321;50.816;6.054;2022-12-18T13:42:56;2.70;65.00
41628;DHT22;27321;50.816;6.054;2022-12-18T13:46:43;2.70;64.40
41628;DHT22;27321;50.816;6.054;2022-12-18T13:49:48;2.80;63.90
41628;DHT22;27321;50.816;6.054;2022-12-18T13:52:49;2.70;63.50
41628;DHT22;27321;50.816;6.054;2022-12-18T13:55:51;2.80;64.10
41628;DHT22;27321;50.816;6.054;2022-12-18T13:59:15;2.80;64.10
41628;DHT22;27321;50.816;6.054;2022-12-18T14:02:28;2.90;63.80
41628;DHT22;27321;50.816;6.054;2022-12-18T14:05:31;2.90;63.60
41628;DHT22;27321;50.816;6.054;2022-12-18T14:08:43;3.00;63.90
41628;DHT22;27321;50.816;6.054;2022-12-18T14:11:48;3.00;63.80
41628;DHT22;27321;50.816;6.054;2022-12-18T14:14:51;3.00;63.80
41628;DHT22;27321;50.816;6.054;2022-12-18T14:28:02;3.10;63.30
41628;DHT22;27321;50.816;6.054;2022-12-18T14:31:26;3.00;63.20
41628;DHT22;27321;50.816;6.054;2022-12-18T14:34:28;3.00;63.40
41628;DHT22;27321;50.816;6.054;2022-12-18T14:37:29;3.00;63.30
41628;DHT22;27321;50.816;6.054;2022-12-18T14:40:31;2.90;63.80
41628;DHT22;27321;50.816;6.054;2022-12-18T14:43:36;2.90;63.80
41628;DHT22;27321;50.816;6.054;2022-12-18T14:46:46;2.90;64.00
41628;DHT22;27321;50.816;6.054;2022-12-18T14:49:47;2.90;63.90
41628;DHT22;27321;50.816;6.054;2022-12-18T14:52:49;2.80;63.60
41628;DHT22;27321;50.816;6.054;2022-12-18T14:55:50;2.90;63.80
41628;DHT22;27321;50.816;6.054;2022-12-18T14:59:15;2.80;64.30
41628;DHT22;27321;50.816;6.054;2022-12-18T15:02:25;2.80;64.20
41628;DHT22;27321;50.816;6.054;2022-12-18T15:05:30;2.80;64.70
41628;DHT22;27321;50.816;6.054;2022-12-18T15:08:36;2.70;64.80
41628;DHT22;27321;50.816;6.054;2022-12-18T15:14:41;2.60;65.20
41628;DHT22;27321;50.816;6.054;2022-12-18T15:17:42;2.60;65.30
41628;DHT22;27321;50.816;6.054;2022-12-18T15:20:52;2.50;65.50
41628;DHT22;27321;50.816;6.054;2022-12-18T15:23:58;2.50;65.80
41628;DHT22;27321;50.816;6.054;2022-12-18T15:27:00;2.60;65.90
41628;DHT22;27321;50.816;6.054;2022-12-18T15:33:26;2.50;65.50
41628;DHT22;27321;50.816;6.054;2022-12-18T15:36:30;2.50;65.80
41628;DHT22;27321;50.816;6.054;2022-12-18T15:39:31;2.50;65.70
41628;DHT22;27321;50.816;6.054;2022-12-18T15:42:32;2.50;66.00
41628;DHT22;27321;50.816;6.054;2022-12-18T15:45:51;2.50;65.70
41628;DHT22;27321;50.816;6.054;2022-12-18T15:48:54;2.40;65.70
41628;DHT22;27321;50.816;6.054;2022-12-18T15:51:59;2.40;66.00
41628;DHT22;27321;50.816;6.054;2022-12-18T15:55:04;2.40;66.40
41628;DHT22;27321;50.816;6.054;2022-12-18T15:58:27;2.30;66.80
41628;DHT22;27321;50.816;6.054;2022-12-18T16:01:30;2.30;67.10
41628;DHT22;27321;50.816;6.054;2022-12-18T16:04:31;2.30;67.30
41628;DHT22;27321;50.816;6.054;2022-12-18T16:07:32;2.30;67.30
41628;DHT22;27321;50.816;6.054;2022-12-18T16:10:34;2.30;67.50
41628;DHT22;27321;50.816;6.054;2022-12-18T16:13:35;2.30;67.30
41628;DHT22;27321;50.816;6.054;2022-12-18T16:16:36;2.30;67.20
41628;DHT22;27321;50.816;6.054;2022-12-18T16:19:37;2.30;67.20
41628;DHT22;27321;50.816;6.054;2022-12-18T16:22:39;2.30;67.10
41628;DHT22;27321;50.816;6.054;2022-12-18T16:25:40;2.30;66.90
41628;DHT22;27321;50.816;6.054;2022-12-18T16:28:41;2.30;67.30
41628;DHT22;27321;50.816;6.054;2022-12-18T16:31:42;2.30;67.20
41628;DHT22;27321;50.816;6.054;2022-12-18T16:34:44;2.40;67.30
41628;DHT22;27321;50.816;6.054;2022-12-18T16:37:46;2.30;67.60
41628;DHT22;27321;50.816;6.054;2022-12-18T16:40:47;2.30;67.70
41628;DHT22;27321;50.816;6.054;2022-12-18T16:44:06;2.30;67.60
41628;DHT22;27321;50.816;6.054;2022-12-18T16:47:08;2.30;67.70
41628;DHT22;27321;50.816;6.054;2022-12-18T16:50:10;2.40;67.80
41628;DHT22;27321;50.816;6.054;2022-12-18T16:53:11;2.30;67.90
41628;DHT22;27321;50.816;6.054;2022-12-18T16:56:12;2.40;67.50
41628;DHT22;27321;50.816;6.054;2022-12-18T16:59:13;2.30;67.70
41628;DHT22;27321;50.816;6.054;2022-12-18T17:02:19;2.30;67.90
41628;DHT22;27321;50.816;6.054;2022-12-18T17:05:24;2.30;67.90
41628;DHT22;27321;50.816;6.054;2022-12-18T17:08:25;2.30;67.40
41628;DHT22;27321;50.816;6.054;2022-12-18T17:11:28;2.30;67.60
41628;DHT22;27321;50.816;6.054;2022-12-18T17:14:31;2.30;66.80
41628;DHT22;27321;50.816;6.054;2022-12-18T17:17:33;2.30;67.20
41628;DHT22;27321;50.816;6.054;2022-12-18T17:20:36;2.30;67.50
41628;DHT22;27321;50.816;6.054;2022-12-18T17:23:37;2.30;67.00
41628;DHT22;27321;50.816;6.054;2022-12-18T17:26:38;2.30;66.90
41628;DHT22;27321;50.816;6.054;2022-12-18T17:29:39;2.40;67.00
41628;DHT22;27321;50.816;6.054;2022-12-18T17:32:44;2.40;66.90
41628;DHT22;27321;50.816;6.054;2022-12-18T17:35:44;2.40;67.40
41628;DHT22;27321;50.816;6.054;2022-12-18T17:38:51;2.50;67.50
41628;DHT22;27321;50.816;6.054;2022-12-18T17:41:53;2.40;67.60
41628;DHT22;27321;50.816;6.054;2022-12-18T17:44:58;2.50;67.30
41628;DHT22;27321;50.816;6.054;2022-12-18T17:48:05;2.50;67.60
41628;DHT22;27321;50.816;6.054;2022-12-18T17:51:09;2.50;67.50
41628;DHT22;27321;50.816;6.054;2022-12-18T17:54:10;2.50;67.60
41628;DHT22;27321;50.816;6.054;2022-12-18T17:57:11;2.50;67.70
41628;DHT22;27321;50.816;6.054;2022-12-18T18:00:13;2.50;68.00
41628;DHT22;27321;50.816;6.054;2022-12-18T18:03:14;2.50;67.60
41628;DHT22;27321;50.816;6.054;2022-12-18T18:06:16;2.50;67.80
41628;DHT22;27321;50.816;6.054;2022-12-18T18:09:20;2.60;67.40
41628;DHT22;27321;50.816;6.054;2022-12-18T18:12:21;2.60;67.10
41628;DHT22;27321;50.816;6.054;2022-12-18T18:15:40;2.50;67.30
41628;DHT22;27321;50.816;6.054;2022-12-18T18:18:42;2.60;66.90
41628;DHT22;27321;50.816;6.054;2022-12-18T18:21:52;2.60;66.90
41628;DHT22;27321;50.816;6.054;2022-12-18T18:25:01;2.70;67.10
41628;DHT22;27321;50.816;6.054;2022-12-18T18:28:13;2.70;67.40
41628;DHT22;27321;50.816;6.054;2022-12-18T18:31:24;2.70;66.80
41628;DHT22;27321;50.816;6.054;2022-12-18T18:34:33;2.70;66.80
41628;DHT22;27321;50.816;6.054;2022-12-18T18:51:44;2.80;66.60
41628;DHT22;27321;50.816;6.054;2022-12-18T18:54:47;2.90;66.90
41628;DHT22;27321;50.816;6.054;2022-12-18T18:57:52;2.90;67.30
41628;DHT22;27321;50.816;6.054;2022-12-18T19:01:00;2.90;66.50
41628;DHT22;27321;50.816;6.054;2022-12-18T19:04:13;2.90;65.60
41628;DHT22;27321;50.816;6.054;2022-12-18T19:07:15;3.00;63.80
41628;DHT22;27321;50.816;6.054;2022-12-18T19:10:16;3.10;63.70
41628;DHT22;27321;50.816;6.054;2022-12-18T19:13:21;3.10;63.90
41628;DHT22;27321;50.816;6.054;2022-12-18T19:16:27;3.20;62.90
41628;DHT22;27321;50.816;6.054;2022-12-18T19:19:31;3.20;64.60
41628;DHT22;27321;50.816;6.054;2022-12-18T19:22:34;3.20;63.60
41628;DHT22;27321;50.816;6.054;2022-12-18T19:25:42;3.30;63.60
41628;DHT22;27321;50.816;6.054;2022-12-18T19:28:48;3.30;63.10
41628;DHT22;27321;50.816;6.054;2022-12-18T19:31:49;3.30;63.50
41628;DHT22;27321;50.816;6.054;2022-12-18T19:34:52;3.40;63.20
41628;DHT22;27321;50.816;6.054;2022-12-18T19:37:53;3.40;63.30
41628;DHT22;27321;50.816;6.054;2022-12-18T19:40:54;3.50;62.70
41628;DHT22;27321;50.816;6.054;2022-12-18T19:43:59;3.50;62.70
41628;DHT22;27321;50.816;6.054;2022-12-18T19:47:03;3.60;62.40
41628;DHT22;27321;50.816;6.054;2022-12-18T19:50:05;3.60;62.10
41628;DHT22;27321;50.816;6.054;2022-12-18T19:53:07;3.60;62.10
41628;DHT22;27321;50.816;6.054;2022-12-18T19:56:18;3.70;62.40
41628;DHT22;27321;50.816;6.054;2022-12-18T19:59:23;3.70;62.50
41628;DHT22;27321;50.816;6.054;2022-12-18T20:02:27;3.80;62.40
41628;DHT22;27321;50.816;6.054;2022-12-18T20:05:31;3.80;61.80
41628;DHT22;27321;50.816;6.054;2022-12-18T20:08:35;3.70;61.50
41628;DHT22;27321;50.816;6.054;2022-12-18T20:11:37;3.60;62.00
41628;DHT22;27321;50.816;6.054;2022-12-18T20:14:38;3.60;61.80
41628;DHT22;27321;50.816;6.054;2022-12-18T20:17:39;3.60;62.20
41628;DHT22;27321;50.816;6.054;2022-12-18T20:20:44;3.60;63.00
41628;DHT22;27321;50.816;6.054;2022-12-18T20:23:48;3.60;63.20
41628;DHT22;27321;50.816;6.054;2022-12-18T20:26:50;3.60;63.70
41628;DHT22;27321;50.816;6.054;2022-12-18T20:29:51;3.70;63.20
41628;DHT22;27321;50.816;6.054;2022-12-18T20:32:52;3.70;63.20
41628;DHT22;27321;50.816;6.054;2022-12-18T20:36:12;3.80;63.40
41628;DHT22;27321;50.816;6.054;2022-12-18T20:39:20;3.80;63.20
41628;DHT22;27321;50.816;6.054;2022-12-18T20:42:21;3.90;63.50
41628;DHT22;27321;50.816;6.054;2022-12-18T20:45:27;3.90;63.70
41628;DHT22;27321;50.816;6.054;2022-12-18T20:48:32;3.90;64.30
41628;DHT22;27321;50.816;6.054;2022-12-18T20:51:34;3.90;64.80
41628;DHT22;27321;50.816;6.054;2022-12-18T20:54:36;3.90;66.10
41628;DHT22;27321;50.816;6.054;2022-12-18T20:57:58;3.90;66.50
41628;DHT22;27321;50.816;6.054;2022-12-18T21:01:42;3.80;67.50
41628;DHT22;27321;50.816;6.054;2022-12-18T21:04:54;3.90;68.30
41628;DHT22;27321;50.816;6.054;2022-12-18T21:07:56;4.00;68.60
41628;DHT22;27321;50.816;6.054;2022-12-18T21:14:41;4.10;69.60
41628;DHT22;27321;50.816;6.054;2022-12-18T21:17:44;4.10;70.00
41628;DHT22;27321;50.816;6.054;2022-12-18T21:20:47;4.20;70.40
41628;DHT22;27321;50.816;6.054;2022-12-18T21:23:49;4.20;70.40